Terminal Aerodrome Forecast
Issued by NWS Newport/Morehead City, NC

Home | Current Version | Previous Version | Text Only | Print | Product List | Glossary On
Versions: 1 2 3 4 5 6 7 8 9 10 11 12 13 14 15 16
000
FTUS42 KMHX 251700
TAFEWN
TAF
KEWN 251738Z 2518/2618 VRB06KT P6SM SKC
     FM260600 20003KT P6SM SCT100 BKN250
     FM261000 22004KT P6SM OVC100
     FM261600 26005KT P6SM OVC050=

USA.gov is the U.S. government's official web portal to all federal, state and local government web resources and services.